Time;durP1;ratioP1;P1;durP2;ratioP2;P2;SDS_P1;SDS_P2;PMS_P1;PMS_P2;Temp;Humidity;BMP_temperature;BMP_pressure;BME280_temperature;BME280_humidity;BME280_pressure;Samples;Min_cycle;Max_cycle;Signal;HPM_P1;HPM_P2
2023/07/23 00:04:42;;;;;;;4.35;3.42;;;;;;;;;;10370513;28;20038;-55
2023/07/23 00:09:42;;;;;;;3.33;2.70;;;;;;;;;;10345635;28;20029;-56
2023/07/23 00:14:43;;;;;;;4.97;3.00;;;;;;;;;;10362276;28;20027;-56
2023/07/23 00:19:44;;;;;;;4.55;3.13;;;;;;;;;;10370822;28;20034;-56
2023/07/23 00:24:45;;;;;;;4.43;3.03;;;;;;;;;;10374476;28;20025;-56
2023/07/23 00:29:46;;;;;;;3.17;2.85;;;;;;;;;;10369592;28;20037;-56
2023/07/23 00:34:46;;;;;;;4.57;3.00;;;;;;;;;;10343655;28;20465;-56
2023/07/23 00:39:47;;;;;;;4.00;2.92;;;;;;;;;;10353207;28;20046;-56
2023/07/23 00:44:48;;;;;;;3.30;2.95;;;;;;;;;;10349463;28;20133;-55
2023/07/23 00:49:49;;;;;;;3.72;2.95;;;;;;;;;;10335201;28;20034;-56
2023/07/23 00:54:49;;;;;;;3.95;3.13;;;;;;;;;;10334896;28;20512;-54
2023/07/23 00:59:50;;;;;;;3.40;2.90;;;;;;;;;;10367278;28;20034;-56
2023/07/23 01:04:51;;;;;;;4.18;3.00;;;;;;;;;;10359544;28;20038;-56
2023/07/23 01:09:52;;;;;;;3.67;2.60;;;;;;;;;;10344499;28;20034;-56
2023/07/23 01:14:53;;;;;;;4.30;2.75;;;;;;;;;;10349647;28;20034;-56
2023/07/23 01:20:06;;;;;;;3.72;2.95;;;;;;;;;;10361487;28;20445;-55
2023/07/23 01:25:07;;;;;;;3.90;2.78;;;;;;;;;;10362101;28;20097;-55
2023/07/23 01:30:08;;;;;;;3.08;2.58;;;;;;;;;;10352819;28;20495;-55
2023/07/23 01:35:14;;;;;;;3.13;2.88;;;;;;;;;;10361549;28;20042;-55
2023/07/23 01:40:15;;;;;;;3.55;2.80;;;;;;;;;;10354676;28;20046;-56
2023/07/23 01:45:16;;;;;;;4.18;3.00;;;;;;;;;;10350574;28;20485;-56
2023/07/23 01:50:16;;;;;;;3.30;3.00;;;;;;;;;;10369086;28;20025;-55
2023/07/23 01:55:17;;;;;;;3.85;2.95;;;;;;;;;;10365251;28;20034;-56
2023/07/23 02:00:19;;;;;;;3.30;3.00;;;;;;;;;;10356235;28;20034;-56
2023/07/23 02:05:21;;;;;;;2.75;2.55;;;;;;;;;;10355964;28;20030;-56
2023/07/23 02:10:21;;;;;;;2.90;2.60;;;;;;;;;;10368219;28;20041;-56
2023/07/23 02:15:22;;;;;;;3.92;2.58;;;;;;;;;;10355245;28;20108;-56
2023/07/23 02:20:23;;;;;;;3.50;2.65;;;;;;;;;;10343765;28;20056;-56
2023/07/23 02:25:24;;;;;;;4.10;2.78;;;;;;;;;;10355826;28;20022;-56
2023/07/23 02:30:27;;;;;;;3.30;2.58;;;;;;;;;;10367720;28;20470;-55
2023/07/23 02:35:27;;;;;;;3.80;2.42;;;;;;;;;;10344043;28;20032;-56
2023/07/23 02:40:33;;;;;;;4.13;2.50;;;;;;;;;;10359111;28;20398;-59
2023/07/23 02:45:33;;;;;;;2.67;2.42;;;;;;;;;;10363916;28;20031;-56
2023/07/23 02:50:34;;;;;;;2.67;2.47;;;;;;;;;;10361088;28;20363;-55
2023/07/23 02:55:35;;;;;;;2.90;2.70;;;;;;;;;;10371712;28;20041;-56
2023/07/23 03:00:39;;;;;;;2.83;2.58;;;;;;;;;;10371001;28;20033;-56
2023/07/23 03:05:42;;;;;;;3.13;2.30;;;;;;;;;;10362009;28;20478;-60
2023/07/23 03:10:44;;;;;;;2.90;2.58;;;;;;;;;;10374834;28;20391;-56
2023/07/23 03:15:45;;;;;;;2.80;2.50;;;;;;;;;;10371115;28;20030;-56
2023/07/23 03:20:45;;;;;;;2.65;2.22;;;;;;;;;;10346222;28;20441;-56
2023/07/23 03:25:46;;;;;;;3.40;2.60;;;;;;;;;;10349278;28;20026;-58
2023/07/23 03:30:47;;;;;;;3.08;2.78;;;;;;;;;;10360539;28;20037;-55
2023/07/23 03:35:48;;;;;;;2.90;2.35;;;;;;;;;;10362572;28;20042;-56
2023/07/23 03:40:48;;;;;;;2.85;2.55;;;;;;;;;;10361117;28;20042;-56
2023/07/23 03:45:49;;;;;;;3.78;2.67;;;;;;;;;;10361718;28;20018;-56
2023/07/23 03:50:50;;;;;;;3.78;2.55;;;;;;;;;;10371526;28;20288;-59
2023/07/23 03:55:50;;;;;;;4.03;2.45;;;;;;;;;;10370075;28;20034;-56
2023/07/23 04:00:51;;;;;;;3.03;2.20;;;;;;;;;;10352669;28;20038;-56
2023/07/23 04:05:51;;;;;;;3.17;2.50;;;;;;;;;;10365086;28;20055;-56
2023/07/23 04:10:55;;;;;;;2.58;2.35;;;;;;;;;;10367850;28;20036;-56
2023/07/23 04:15:55;;;;;;;3.35;2.70;;;;;;;;;;10370563;28;20083;-55
2023/07/23 04:20:56;;;;;;;3.25;2.60;;;;;;;;;;10369905;28;20420;-58
2023/07/23 04:25:57;;;;;;;4.40;2.70;;;;;;;;;;10362131;28;20378;-56
2023/07/23 04:30:57;;;;;;;2.58;2.38;;;;;;;;;;10370196;28;20347;-55
2023/07/23 04:35:58;;;;;;;3.13;2.65;;;;;;;;;;10369134;28;20397;-55
2023/07/23 04:40:58;;;;;;;3.15;2.47;;;;;;;;;;10362950;28;20042;-55
2023/07/23 04:45:59;;;;;;;4.68;2.97;;;;;;;;;;10363014;28;20050;-56
2023/07/23 04:51:02;;;;;;;2.55;2.35;;;;;;;;;;10364347;28;20038;-56
2023/07/23 04:56:05;;;;;;;3.00;2.60;;;;;;;;;;10367939;28;20041;-56
2023/07/23 05:01:12;;;;;;;4.03;2.40;;;;;;;;;;10368619;28;20032;-56
2023/07/23 05:06:13;;;;;;;2.88;2.55;;;;;;;;;;10365039;28;20030;-55
2023/07/23 05:11:13;;;;;;;2.47;2.28;;;;;;;;;;10366647;28;20037;-56
2023/07/23 05:16:14;;;;;;;2.53;2.33;;;;;;;;;;10366337;28;20048;-56
2023/07/23 05:21:14;;;;;;;3.42;2.65;;;;;;;;;;10366557;28;20029;-56
2023/07/23 05:26:15;;;;;;;3.45;2.30;;;;;;;;;;10359356;28;20028;-55
2023/07/23 05:31:17;;;;;;;3.45;2.95;;;;;;;;;;10353776;28;20040;-56
2023/07/23 05:36:18;;;;;;;2.42;2.22;;;;;;;;;;10391107;23;20054;-57
2023/07/23 05:41:18;;;;;;;2.40;2.10;;;;;;;;;;10356701;28;20026;-56
2023/07/23 05:46:19;;;;;;;2.70;2.10;;;;;;;;;;10365486;28;20278;-55
2023/07/23 05:51:21;;;;;;;4.47;2.78;;;;;;;;;;10356159;28;20046;-56
2023/07/23 05:56:21;;;;;;;3.38;2.58;;;;;;;;;;10342637;28;20034;-55
2023/07/23 06:01:22;;;;;;;5.78;2.80;;;;;;;;;;10358224;28;20053;-56
2023/07/23 06:06:23;;;;;;;4.00;2.70;;;;;;;;;;10357959;28;20026;-57
2023/07/23 06:11:23;;;;;;;3.25;2.63;;;;;;;;;;10339196;28;20029;-53
2023/07/23 06:16:25;;;;;;;4.45;2.83;;;;;;;;;;10361420;28;20053;-55
2023/07/23 06:21:25;;;;;;;4.10;2.70;;;;;;;;;;10363404;28;20607;-56
2023/07/23 06:26:27;;;;;;;3.90;3.08;;;;;;;;;;10359336;28;20181;-55
2023/07/23 06:31:27;;;;;;;6.00;3.50;;;;;;;;;;10351140;28;20445;-56
2023/07/23 06:36:28;;;;;;;6.15;3.35;;;;;;;;;;10342231;28;20039;-57
2023/07/23 06:41:29;;;;;;;5.80;3.50;;;;;;;;;;10366010;28;20038;-57
2023/07/23 06:46:29;;;;;;;3.25;2.75;;;;;;;;;;10364804;28;20072;-56
2023/07/23 06:51:30;;;;;;;3.15;2.90;;;;;;;;;;10343821;28;20042;-57
2023/07/23 06:56:30;;;;;;;5.70;3.38;;;;;;;;;;10344403;28;20283;-57
2023/07/23 07:01:31;;;;;;;4.65;3.78;;;;;;;;;;10358765;28;20084;-58
2023/07/23 07:06:32;;;;;;;6.07;3.17;;;;;;;;;;10370750;28;20025;-58
2023/07/23 07:11:32;;;;;;;3.80;3.13;;;;;;;;;;10370405;28;20516;-57
2023/07/23 07:16:33;;;;;;;5.85;3.55;;;;;;;;;;10370607;28;20029;-57
2023/07/23 07:21:34;;;;;;;4.40;3.78;;;;;;;;;;10370945;28;20566;-58
2023/07/23 07:26:34;;;;;;;5.47;3.35;;;;;;;;;;10364134;28;20038;-57
2023/07/23 07:31:35;;;;;;;4.82;3.50;;;;;;;;;;10368557;28;20186;-57
2023/07/23 07:36:36;;;;;;;4.55;3.08;;;;;;;;;;10370305;28;20099;-55
2023/07/23 07:41:37;;;;;;;3.58;3.17;;;;;;;;;;10368596;28;20037;-56
2023/07/23 07:46:37;;;;;;;5.15;3.55;;;;;;;;;;10337850;28;20405;-57
2023/07/23 07:51:39;;;;;;;5.72;3.30;;;;;;;;;;10344366;28;20445;-58
2023/07/23 07:56:42;;;;;;;3.75;3.20;;;;;;;;;;10343972;28;20382;-56
2023/07/23 08:01:43;;;;;;;3.85;3.22;;;;;;;;;;10357425;28;20030;-56
2023/07/23 08:06:44;;;;;;;3.35;2.83;;;;;;;;;;10357127;28;20108;-57
2023/07/23 08:11:47;;;;;;;3.63;3.25;;;;;;;;;;10351032;28;20382;-58
2023/07/23 08:16:52;;;;;;;3.05;2.60;;;;;;;;;;10368790;28;20029;-58
2023/07/23 08:21:53;;;;;;;4.57;3.10;;;;;;;;;;10332316;28;20027;-57
2023/07/23 08:26:57;;;;;;;4.47;3.03;;;;;;;;;;10367045;28;20087;-57
2023/07/23 08:31:58;;;;;;;4.18;3.15;;;;;;;;;;10328340;28;20033;-57
2023/07/23 08:36:59;;;;;;;3.47;3.17;;;;;;;;;;10338796;28;20085;-56
2023/07/23 08:42:29;;;;;;;3.97;2.80;;;;;;;;;;10352083;28;20029;-56
2023/07/23 08:47:33;;;;;;;4.30;3.30;;;;;;;;;;10344458;28;20026;-57
2023/07/23 08:52:36;;;;;;;4.55;3.30;;;;;;;;;;10324330;28;20027;-57
2023/07/23 08:57:38;;;;;;;4.20;3.08;;;;;;;;;;10338859;28;20065;-57
2023/07/23 09:02:41;;;;;;;3.83;3.22;;;;;;;;;;10326114;28;20113;-56
2023/07/23 09:07:42;;;;;;;3.95;2.63;;;;;;;;;;10360368;28;20144;-56
2023/07/23 09:12:42;;;;;;;4.70;3.20;;;;;;;;;;10354584;28;20152;-54
2023/07/23 09:17:47;;;;;;;3.03;2.72;;;;;;;;;;10342361;28;20045;-54
2023/07/23 09:22:48;;;;;;;4.35;3.30;;;;;;;;;;10360179;28;20022;-56
2023/07/23 09:27:49;;;;;;;3.33;3.03;;;;;;;;;;10336207;28;20026;-55
2023/07/23 09:33:01;;;;;;;4.70;3.20;;;;;;;;;;10346562;28;20054;-54
2023/07/23 09:38:03;;;;;;;4.65;3.30;;;;;;;;;;10353781;28;20486;-55
2023/07/23 09:43:04;;;;;;;4.53;3.28;;;;;;;;;;10357444;28;20018;-56
2023/07/23 09:48:07;;;;;;;4.25;3.30;;;;;;;;;;10340845;28;20405;-56
2023/07/23 09:53:13;;;;;;;5.30;3.58;;;;;;;;;;10329552;28;20061;-55
2023/07/23 09:58:18;;;;;;;6.70;3.70;;;;;;;;;;10335867;28;20061;-57
2023/07/23 10:03:20;;;;;;;4.25;3.30;;;;;;;;;;10354373;28;20022;-57
2023/07/23 10:08:23;;;;;;;5.85;3.00;;;;;;;;;;10337261;28;20062;-58
2023/07/23 10:13:23;;;;;;;4.13;3.33;;;;;;;;;;10362199;28;20121;-56
2023/07/23 10:18:28;;;;;;;3.70;3.08;;;;;;;;;;10372740;28;20041;-57
2023/07/23 10:23:28;;;;;;;5.05;3.22;;;;;;;;;;10355728;28;20025;-57
2023/07/23 10:28:29;;;;;;;5.03;3.17;;;;;;;;;;10338251;28;20026;-57
2023/07/23 10:33:30;;;;;;;4.70;3.42;;;;;;;;;;10348346;28;20057;-57
2023/07/23 10:38:38;;;;;;;5.05;3.25;;;;;;;;;;10356146;28;20065;-56
2023/07/23 10:43:48;;;;;;;4.13;3.25;;;;;;;;;;10372410;28;20033;-54
2023/07/23 10:48:55;;;;;;;3.72;2.97;;;;;;;;;;10367709;28;20029;-56
2023/07/23 10:54:05;;;;;;;5.93;3.33;;;;;;;;;;10360688;28;20318;-56
2023/07/23 10:59:10;;;;;;;4.95;3.10;;;;;;;;;;10360177;28;20042;-56
2023/07/23 11:04:16;;;;;;;4.00;3.05;;;;;;;;;;10366649;28;20184;-56
2023/07/23 11:09:27;;;;;;;3.85;3.15;;;;;;;;;;10353144;28;20022;-55
2023/07/23 11:14:29;;;;;;;4.47;3.20;;;;;;;;;;10347185;28;20034;-57
2023/07/23 11:19:32;;;;;;;4.85;3.40;;;;;;;;;;10338929;28;20390;-57
2023/07/23 11:24:32;;;;;;;4.30;3.30;;;;;;;;;;10358099;28;20030;-55
2023/07/23 11:29:33;;;;;;;3.55;3.05;;;;;;;;;;10345482;28;20030;-56
2023/07/23 11:34:33;;;;;;;4.63;3.47;;;;;;;;;;10339224;28;20033;-55
2023/07/23 11:39:34;;;;;;;6.72;3.30;;;;;;;;;;10337826;28;20117;-56
2023/07/23 11:44:34;;;;;;;5.72;3.00;;;;;;;;;;10368785;28;20322;-56
2023/07/23 11:49:35;;;;;;;3.78;3.40;;;;;;;;;;10333293;28;20041;-54
2023/07/23 11:54:36;;;;;;;3.50;3.22;;;;;;;;;;10368306;28;20030;-54
2023/07/23 11:59:38;;;;;;;5.05;3.50;;;;;;;;;;10344983;28;20357;-53
2023/07/23 12:04:39;;;;;;;3.88;3.38;;;;;;;;;;10348072;28;20113;-56
2023/07/23 12:09:40;;;;;;;8.90;3.70;;;;;;;;;;10353563;28;20458;-56
2023/07/23 12:14:41;;;;;;;5.75;3.47;;;;;;;;;;10356153;28;20058;-54
2023/07/23 12:19:43;;;;;;;5.00;3.45;;;;;;;;;;10344862;28;20034;-54
2023/07/23 12:24:43;;;;;;;3.33;2.92;;;;;;;;;;10349366;28;20046;-54
2023/07/23 12:29:45;;;;;;;4.30;3.15;;;;;;;;;;10348988;28;20026;-54
2023/07/23 12:34:47;;;;;;;4.35;3.47;;;;;;;;;;10350510;28;20089;-54
2023/07/23 12:39:48;;;;;;;5.88;3.05;;;;;;;;;;10332713;28;20080;-54
2023/07/23 12:44:49;;;;;;;3.70;3.40;;;;;;;;;;10359301;28;20436;-54
2023/07/23 12:49:50;;;;;;;4.80;3.00;;;;;;;;;;10356533;28;20026;-54
2023/07/23 12:54:51;;;;;;;6.95;3.55;;;;;;;;;;10356092;28;20027;-54
2023/07/23 12:59:51;;;;;;;4.40;3.50;;;;;;;;;;10343545;28;20027;-55
2023/07/23 13:04:52;;;;;;;3.42;3.13;;;;;;;;;;10354316;28;20497;-55
2023/07/23 13:09:52;;;;;;;5.90;3.70;;;;;;;;;;10355166;28;20030;-54
2023/07/23 13:14:53;;;;;;;4.15;3.42;;;;;;;;;;10326375;28;20023;-53
2023/07/23 13:19:54;;;;;;;5.10;3.70;;;;;;;;;;10342514;28;20486;-57
2023/07/23 13:24:54;;;;;;;6.10;3.80;;;;;;;;;;10363315;28;20488;-56
2023/07/23 13:29:55;;;;;;;5.60;3.70;;;;;;;;;;10353464;28;20030;-57
2023/07/23 13:34:55;;;;;;;4.70;3.63;;;;;;;;;;10352727;28;20481;-56
2023/07/23 13:39:56;;;;;;;6.53;3.30;;;;;;;;;;10349437;28;20037;-56
2023/07/23 13:44:56;;;;;;;5.05;3.58;;;;;;;;;;10364001;28;20021;-55
2023/07/23 13:49:57;;;;;;;6.68;3.50;;;;;;;;;;10352829;28;20254;-56
2023/07/23 13:54:58;;;;;;;3.88;3.40;;;;;;;;;;10353177;28;20021;-54
2023/07/23 13:59:58;;;;;;;4.68;3.22;;;;;;;;;;10353399;28;20346;-55
2023/07/23 14:04:59;;;;;;;6.28;3.70;;;;;;;;;;10341142;28;20027;-54
2023/07/23 14:09:59;;;;;;;4.25;3.50;;;;;;;;;;10353291;28;20018;-56
2023/07/23 14:15:01;;;;;;;5.45;3.50;;;;;;;;;;10341742;28;20084;-54
2023/07/23 14:20:04;;;;;;;4.18;3.10;;;;;;;;;;10336980;28;20066;-54
2023/07/23 14:25:05;;;;;;;4.43;3.45;;;;;;;;;;10352194;28;20072;-55
2023/07/23 14:30:06;;;;;;;3.90;3.38;;;;;;;;;;10356543;28;20049;-54
2023/07/23 14:35:08;;;;;;;4.28;3.50;;;;;;;;;;10328307;28;20042;-54
2023/07/23 14:40:09;;;;;;;5.10;3.20;;;;;;;;;;10334669;28;20033;-54
2023/07/23 14:45:11;;;;;;;3.63;3.33;;;;;;;;;;10363726;28;20022;-55
2023/07/23 14:50:12;;;;;;;3.70;3.05;;;;;;;;;;10351712;28;20033;-55
2023/07/23 14:55:12;;;;;;;4.60;3.47;;;;;;;;;;10347625;28;20033;-55
2023/07/23 15:00:13;;;;;;;4.13;3.20;;;;;;;;;;10335415;28;20026;-56
2023/07/23 15:05:13;;;;;;;4.30;3.50;;;;;;;;;;10359301;28;20029;-53
2023/07/23 15:10:14;;;;;;;4.78;3.75;;;;;;;;;;10346179;28;20101;-56
2023/07/23 15:15:15;;;;;;;3.70;3.25;;;;;;;;;;10346044;28;20171;-57
2023/07/23 15:20:16;;;;;;;5.40;3.85;;;;;;;;;;10358509;28;20153;-55
2023/07/23 15:25:18;;;;;;;4.22;3.55;;;;;;;;;;10345559;28;20026;-57
2023/07/23 15:30:19;;;;;;;4.85;3.80;;;;;;;;;;10370441;28;20382;-56
2023/07/23 15:35:19;;;;;;;3.83;3.50;;;;;;;;;;10349211;28;20043;-56
2023/07/23 15:40:20;;;;;;;5.53;3.80;;;;;;;;;;10353279;28;20026;-56
2023/07/23 15:45:21;;;;;;;3.97;3.28;;;;;;;;;;10345418;28;20045;-56
2023/07/23 15:50:21;;;;;;;4.07;3.03;;;;;;;;;;10368950;28;20048;-55
2023/07/23 15:55:22;;;;;;;4.63;3.53;;;;;;;;;;10356237;28;20603;-54
2023/07/23 16:00:23;;;;;;;4.47;3.28;;;;;;;;;;10345210;28;20496;-57
2023/07/23 16:05:23;;;;;;;6.07;3.40;;;;;;;;;;10346806;28;20474;-58
2023/07/23 16:10:24;;;;;;;6.22;3.85;;;;;;;;;;10347315;28;20565;-57
2023/07/23 16:15:25;;;;;;;6.57;3.50;;;;;;;;;;10355920;28;20022;-55
2023/07/23 16:20:25;;;;;;;5.25;3.33;;;;;;;;;;10350698;28;20022;-57
2023/07/23 16:25:26;;;;;;;4.38;3.10;;;;;;;;;;10347747;28;20473;-56
2023/07/23 16:30:27;;;;;;;7.28;3.50;;;;;;;;;;10343096;28;20821;-56
2023/07/23 16:35:28;;;;;;;3.35;2.95;;;;;;;;;;10349877;28;20049;-57
2023/07/23 16:40:31;;;;;;;5.43;3.15;;;;;;;;;;10356398;28;20113;-57
2023/07/23 16:45:32;;;;;;;4.00;3.15;;;;;;;;;;10332465;28;20084;-56
2023/07/23 16:50:33;;;;;;;4.97;3.08;;;;;;;;;;10356700;28;20041;-55
2023/07/23 16:55:34;;;;;;;4.90;3.15;;;;;;;;;;10342414;28;20026;-54
2023/07/23 17:00:34;;;;;;;6.70;3.00;;;;;;;;;;10323575;28;20133;-55
2023/07/23 17:05:35;;;;;;;3.13;2.83;;;;;;;;;;10359940;28;20037;-56
2023/07/23 17:10:35;;;;;;;5.63;3.03;;;;;;;;;;10330578;28;20026;-55
2023/07/23 17:15:36;;;;;;;4.93;2.78;;;;;;;;;;10343837;28;20065;-55
2023/07/23 17:20:43;;;;;;;5.05;2.90;;;;;;;;;;10330769;28;20026;-54
2023/07/23 17:25:44;;;;;;;5.50;3.08;;;;;;;;;;10337648;28;20489;-56
2023/07/23 17:31:02;;;;;;;5.70;2.88;;;;;;;;;;10355808;28;20022;-55
2023/07/23 17:36:02;;;;;;;4.68;3.03;;;;;;;;;;10347906;28;20124;-56
2023/07/23 17:41:03;;;;;;;7.68;3.20;;;;;;;;;;10349422;28;20092;-55
2023/07/23 17:46:03;;;;;;;4.32;3.13;;;;;;;;;;10347014;28;20041;-56
2023/07/23 17:51:04;;;;;;;3.90;3.10;;;;;;;;;;10349012;28;20030;-56
2023/07/23 17:56:05;;;;;;;2.80;2.55;;;;;;;;;;10342162;28;20494;-55
2023/07/23 18:01:06;;;;;;;4.53;2.72;;;;;;;;;;10332216;28;20022;-54
2023/07/23 18:06:06;;;;;;;3.28;2.97;;;;;;;;;;10346807;28;20030;-55
2023/07/23 18:11:07;;;;;;;4.20;2.97;;;;;;;;;;10345406;28;20603;-57
2023/07/23 18:16:08;;;;;;;4.53;2.65;;;;;;;;;;10338033;28;20494;-57
2023/07/23 18:21:08;;;;;;;2.75;2.55;;;;;;;;;;10346186;28;20456;-57
2023/07/23 18:26:09;;;;;;;4.00;2.83;;;;;;;;;;10344262;28;20497;-58
2023/07/23 18:31:10;;;;;;;3.45;2.78;;;;;;;;;;10353175;28;20112;-56
2023/07/23 18:36:11;;;;;;;4.30;3.17;;;;;;;;;;10355808;28;20591;-56
2023/07/23 18:41:14;;;;;;;3.13;2.60;;;;;;;;;;10369365;28;20033;-57
2023/07/23 18:46:15;;;;;;;3.60;2.83;;;;;;;;;;10346058;28;20397;-57
2023/07/23 18:51:16;;;;;;;5.65;2.92;;;;;;;;;;10352434;28;20033;-58
2023/07/23 18:56:16;;;;;;;4.43;3.10;;;;;;;;;;10347649;28;20060;-57
2023/07/23 19:01:17;;;;;;;4.95;3.10;;;;;;;;;;10352645;28;20441;-57
2023/07/23 19:06:17;;;;;;;7.97;3.33;;;;;;;;;;10353109;28;20042;-58
2023/07/23 19:11:18;;;;;;;7.78;3.25;;;;;;;;;;10324855;28;20027;-58
2023/07/23 19:16:19;;;;;;;11.23;3.65;;;;;;;;;;10340930;28;20027;-57
2023/07/23 19:21:19;;;;;;;7.95;3.47;;;;;;;;;;10334742;28;20083;-58
2023/07/23 19:26:20;;;;;;;7.65;3.25;;;;;;;;;;10336909;28;20030;-58
2023/07/23 19:31:20;;;;;;;12.23;3.42;;;;;;;;;;10352100;28;20039;-58
2023/07/23 19:36:21;;;;;;;5.93;3.30;;;;;;;;;;10357603;28;20045;-58
2023/07/23 19:41:22;;;;;;;6.65;3.72;;;;;;;;;;10346570;28;20091;-58
2023/07/23 19:46:22;;;;;;;7.05;3.50;;;;;;;;;;10355077;28;20029;-57
2023/07/23 19:51:23;;;;;;;8.82;3.45;;;;;;;;;;10369238;28;20072;-57
2023/07/23 19:56:24;;;;;;;6.63;3.70;;;;;;;;;;10354531;28;20030;-57
2023/07/23 20:01:24;;;;;;;7.65;3.58;;;;;;;;;;10359926;28;20033;-58
2023/07/23 20:06:25;;;;;;;7.90;3.70;;;;;;;;;;10348540;28;20025;-57
2023/07/23 20:11:26;;;;;;;5.65;3.13;;;;;;;;;;10363220;28;20465;-58
2023/07/23 20:16:26;;;;;;;6.13;3.60;;;;;;;;;;10351415;28;20035;-58
2023/07/23 20:21:27;;;;;;;5.00;3.33;;;;;;;;;;10351028;28;20029;-59
2023/07/23 20:26:27;;;;;;;5.07;3.08;;;;;;;;;;10354623;28;20030;-59
2023/07/23 20:31:28;;;;;;;5.65;3.25;;;;;;;;;;10344476;28;20022;-59
2023/07/23 20:36:29;;;;;;;7.40;3.83;;;;;;;;;;10338692;28;20042;-57
2023/07/23 20:41:31;;;;;;;4.78;3.13;;;;;;;;;;10348046;28;20109;-57
2023/07/23 20:46:32;;;;;;;6.13;3.70;;;;;;;;;;10362807;28;20034;-57
2023/07/23 20:51:32;;;;;;;6.05;3.13;;;;;;;;;;10351481;28;20136;-57
2023/07/23 20:56:33;;;;;;;7.45;3.30;;;;;;;;;;10365466;28;20022;-58
2023/07/23 21:01:33;;;;;;;5.35;3.22;;;;;;;;;;10357310;28;20034;-57
2023/07/23 21:06:34;;;;;;;4.47;3.30;;;;;;;;;;10366966;28;20029;-58
2023/07/23 21:11:35;;;;;;;5.45;3.40;;;;;;;;;;10351136;28;20038;-58
2023/07/23 21:16:35;;;;;;;6.35;3.33;;;;;;;;;;10358685;28;20042;-60
2023/07/23 21:21:36;;;;;;;6.22;3.13;;;;;;;;;;10350469;28;20030;-58
2023/07/23 21:26:38;;;;;;;5.70;3.15;;;;;;;;;;10342671;28;20033;-59
2023/07/23 21:31:39;;;;;;;5.57;3.45;;;;;;;;;;10350022;28;20470;-59
2023/07/23 21:36:40;;;;;;;6.18;3.58;;;;;;;;;;10356083;28;20046;-60
2023/07/23 21:41:40;;;;;;;5.50;3.20;;;;;;;;;;10343311;28;20278;-60
2023/07/23 21:46:41;;;;;;;8.25;3.30;;;;;;;;;;10358494;28;20293;-59
2023/07/23 21:51:41;;;;;;;4.20;2.83;;;;;;;;;;10354169;28;20366;-59
2023/07/23 21:56:42;;;;;;;4.80;3.15;;;;;;;;;;10352297;28;20060;-59
2023/07/23 22:01:43;;;;;;;4.90;3.58;;;;;;;;;;10360398;28;20035;-60
2023/07/23 22:06:43;;;;;;;5.32;3.47;;;;;;;;;;10362438;28;20034;-59
2023/07/23 22:11:44;;;;;;;5.25;3.40;;;;;;;;;;10358515;28;20037;-59
2023/07/23 22:16:44;;;;;;;27.10;3.50;;;;;;;;;;10345025;28;20038;-58
2023/07/23 22:21:45;;;;;;;5.47;3.17;;;;;;;;;;10349107;28;20029;-59
2023/07/23 22:26:46;;;;;;;4.80;3.40;;;;;;;;;;10336210;28;20030;-58
2023/07/23 22:31:46;;;;;;;8.13;3.63;;;;;;;;;;10346404;28;20026;-59
2023/07/23 22:36:47;;;;;;;4.07;2.97;;;;;;;;;;10349520;28;20409;-58
2023/07/23 22:41:47;;;;;;;5.90;3.22;;;;;;;;;;10352761;28;20030;-58
2023/07/23 22:46:49;;;;;;;6.60;3.30;;;;;;;;;;10345484;28;20042;-58
2023/07/23 22:51:49;;;;;;;6.75;3.13;;;;;;;;;;10327460;28;20040;-59
2023/07/23 22:56:50;;;;;;;4.78;3.17;;;;;;;;;;10328107;28;20402;-59
2023/07/23 23:01:50;;;;;;;7.25;2.80;;;;;;;;;;10344009;28;20030;-58
2023/07/23 23:06:51;;;;;;;5.93;3.10;;;;;;;;;;10330462;28;20026;-59
2023/07/23 23:11:52;;;;;;;4.65;2.80;;;;;;;;;;10342325;28;20033;-58
2023/07/23 23:16:53;;;;;;;3.83;3.00;;;;;;;;;;10345253;28;20050;-58
2023/07/23 23:21:53;;;;;;;3.90;2.78;;;;;;;;;;10334760;28;20520;-59
2023/07/23 23:26:54;;;;;;;3.85;2.95;;;;;;;;;;10369774;28;20036;-59
2023/07/23 23:31:54;;;;;;;5.72;3.30;;;;;;;;;;10340079;28;20027;-58
2023/07/23 23:36:55;;;;;;;8.10;3.10;;;;;;;;;;10350109;28;20042;-58
2023/07/23 23:41:55;;;;;;;5.93;3.00;;;;;;;;;;10348163;28;20030;-58
2023/07/23 23:46:56;;;;;;;3.78;3.17;;;;;;;;;;10350272;28;20022;-58
2023/07/23 23:51:57;;;;;;;4.68;3.20;;;;;;;;;;10347714;28;20045;-59
2023/07/23 23:56:57;;;;;;;8.63;3.30;;;;;;;;;;10350317;28;20033;-58
